createdAt,value
2019-04-26T00:01:26.049Z,13.36
2019-04-26T00:06:28.358Z,13.30
2019-04-26T00:11:48.800Z,13.22
2019-04-26T00:16:53.433Z,13.28
2019-04-26T00:21:55.803Z,13.23
2019-04-26T00:26:57.928Z,13.23
2019-04-26T00:32:00.164Z,13.22
2019-04-26T00:37:02.060Z,13.18
2019-04-26T00:42:04.214Z,13.16
2019-04-26T00:47:07.407Z,13.09
2019-04-26T00:52:10.944Z,13.20
2019-04-26T00:57:14.629Z,12.38
2019-04-26T01:02:21.445Z,12.38
2019-04-26T01:07:25.272Z,12.44
2019-04-26T01:12:27.294Z,12.54
2019-04-26T01:17:29.152Z,12.48
2019-04-26T01:22:34.609Z,12.72
2019-04-26T01:27:37.040Z,12.38
2019-04-26T01:32:42.002Z,12.06
2019-04-26T01:37:45.206Z,12.09
2019-04-26T01:43:06.743Z,12.19
2019-04-26T01:48:31.383Z,12.19
2019-04-26T01:53:33.774Z,12.13
2019-04-26T01:58:35.771Z,12.06
2019-04-26T02:03:37.853Z,12.06
2019-04-26T02:08:39.749Z,12.21
2019-04-26T02:13:41.760Z,11.99
2019-04-26T02:18:44.041Z,12.11
2019-04-26T02:23:53.904Z,12.27
2019-04-26T02:28:55.758Z,11.86
2019-04-26T02:33:58.384Z,11.70
2019-04-26T02:39:04.534Z,11.53
2019-04-26T02:44:10.528Z,11.48
2019-04-26T02:49:15.848Z,11.68
2019-04-26T02:54:29.823Z,11.63
2019-04-26T02:59:38.328Z,11.46
2019-04-26T03:04:43.853Z,11.40
2019-04-26T03:09:49.315Z,10.88
2019-04-26T03:15:13.418Z,10.60
2019-04-26T03:20:23.226Z,10.74
2019-04-26T03:25:43.824Z,10.85
2019-04-26T03:31:08.773Z,10.99
2019-04-26T03:36:44.374Z,11.15
2019-04-26T03:42:10.298Z,11.28
2019-04-26T03:47:15.771Z,10.99
2019-04-26T03:52:24.010Z,10.71
2019-04-26T03:57:52.848Z,10.68
2019-04-26T04:03:11.996Z,10.79
2019-04-26T04:08:17.449Z,10.94
2019-04-26T04:13:43.012Z,11.04
2019-04-26T04:18:47.678Z,11.18
2019-04-26T04:23:55.962Z,11.27
2019-04-26T04:29:40.298Z,11.29
2019-04-26T04:34:41.582Z,11.10
2019-04-26T04:39:49.905Z,11.16
2019-04-26T04:45:03.533Z,11.27
2019-04-26T04:50:14.006Z,11.64
2019-04-26T04:55:28.423Z,11.93
2019-04-26T05:00:45.102Z,12.36
2019-04-26T05:06:07.246Z,12.64
2019-04-26T05:11:11.162Z,12.90
2019-04-26T05:16:32.954Z,13.25
2019-04-26T05:21:53.206Z,13.63
2019-04-26T05:27:27.214Z,13.94
2019-04-26T05:32:55.546Z,14.17
2019-04-26T05:38:17.959Z,14.32
2019-04-26T05:43:29.158Z,14.72
2019-04-26T05:49:13.378Z,15.16
2019-04-26T05:54:48.216Z,15.21
2019-04-26T05:59:58.918Z,15.75
2019-04-26T06:05:09.500Z,15.95
2019-04-26T06:10:25.404Z,16.30
2019-04-26T06:15:56.615Z,16.43
2019-04-26T06:21:02.231Z,17.03
2019-04-26T06:26:37.085Z,17.35
2019-04-26T06:31:59.181Z,17.58
2019-04-26T06:37:21.900Z,17.66
2019-04-26T06:42:48.802Z,18.13
2019-04-26T06:48:23.266Z,18.47
2019-04-26T06:53:40.427Z,19.04
2019-04-26T06:58:51.643Z,19.53
2019-04-26T07:04:18.107Z,19.95
2019-04-26T07:09:23.632Z,20.27
2019-04-26T07:14:46.800Z,20.62
2019-04-26T07:20:04.392Z,20.64
2019-04-26T07:25:20.038Z,20.45
2019-04-26T07:30:41.100Z,20.47
2019-04-26T07:35:49.437Z,20.95
2019-04-26T07:41:19.158Z,21.58
2019-04-26T07:46:52.537Z,22.13
2019-04-26T07:52:17.800Z,22.64
2019-04-26T07:57:50.262Z,23.12
2019-04-26T08:03:13.436Z,23.66
2019-04-26T08:08:22.327Z,23.92
2019-04-26T08:13:28.042Z,24.07
2019-04-26T08:18:38.134Z,24.36
2019-04-26T08:23:45.415Z,24.48
2019-04-26T08:28:50.202Z,24.45
2019-04-26T08:33:57.605Z,24.52
2019-04-26T08:39:00.687Z,24.36
2019-04-26T08:44:17.206Z,24.20
2019-04-26T08:49:40.066Z,24.45
2019-04-26T08:54:46.136Z,24.68
2019-04-26T08:59:51.625Z,24.78
2019-04-26T09:05:15.325Z,24.72
2019-04-26T09:10:20.269Z,24.48
2019-04-26T09:15:42.157Z,24.50
2019-04-26T09:20:44.378Z,24.57
2019-04-26T09:25:58.735Z,24.55
2019-04-26T09:30:56.481Z,24.91
2019-04-26T09:35:58.371Z,25.45
2019-04-26T09:41:01.497Z,25.29
2019-04-26T09:46:05.545Z,25.66
2019-04-26T09:51:09.465Z,25.56
2019-04-26T09:56:11.520Z,24.64
2019-04-26T10:01:13.552Z,24.15
2019-04-26T10:06:17.009Z,25.11
2019-04-26T10:11:21.274Z,25.82
2019-04-26T10:16:28.149Z,26.71
2019-04-26T10:21:30.930Z,27.42
2019-04-26T10:26:33.133Z,27.51
2019-04-26T10:31:34.946Z,27.28
2019-04-26T10:36:36.994Z,26.55
2019-04-26T10:41:38.876Z,26.36
2019-04-26T10:46:54.858Z,25.99
2019-04-26T10:51:45.879Z,25.75
2019-04-26T11:08:49.510Z,24.51
2019-04-26T11:14:27.016Z,24.20
2019-04-26T11:19:32.020Z,23.99
2019-04-26T11:36:21.283Z,22.47
2019-04-26T11:41:29.438Z,22.73
2019-04-26T11:46:48.304Z,22.95
2019-04-26T11:51:50.659Z,23.43
2019-04-26T11:56:56.203Z,23.24
2019-04-26T12:01:58.499Z,23.54
2019-04-26T12:07:12.981Z,24.02
2019-04-26T12:12:15.248Z,24.29
2019-04-26T12:17:17.853Z,24.29
2019-04-26T12:33:47.816Z,25.20
2019-04-26T12:38:53.681Z,25.20
2019-04-26T12:43:58.939Z,25.37
2019-04-26T12:48:59.777Z,25.45
2019-04-26T12:54:03.644Z,25.73
2019-04-26T12:59:08.645Z,25.53
2019-04-26T13:04:10.968Z,25.58
2019-04-26T13:09:21.750Z,25.62
2019-04-26T13:20:11.624Z,25.31
2019-04-26T13:25:20.130Z,25.51
2019-04-26T13:30:18.418Z,25.56
2019-04-26T13:35:22.738Z,25.63
2019-04-26T13:40:25.642Z,25.49
2019-04-26T13:45:47.791Z,25.64
2019-04-26T13:51:08.644Z,25.59
2019-04-26T13:56:10.634Z,25.65
2019-04-26T14:01:14.705Z,25.75
2019-04-26T14:06:17.013Z,25.68
2019-04-26T14:11:20.496Z,25.78
2019-04-26T14:16:23.172Z,25.82
2019-04-26T14:21:33.147Z,25.50
2019-04-26T14:26:39.847Z,25.84
2019-04-26T14:31:42.222Z,25.75
2019-04-26T14:36:44.370Z,25.68
2019-04-26T14:41:52.694Z,25.78
2019-04-26T14:46:56.849Z,25.71
2019-04-26T14:51:57.530Z,25.72
2019-04-26T14:57:07.667Z,25.71
2019-04-26T15:02:12.958Z,25.69
2019-04-26T15:07:15.158Z,25.58
2019-04-26T15:12:17.016Z,25.49
2019-04-26T15:17:20.116Z,25.51
2019-04-26T15:22:24.410Z,25.43
2019-04-26T15:27:26.457Z,25.12
2019-04-26T15:32:32.843Z,25.16
2019-04-26T15:37:32.318Z,25.19
2019-04-26T15:43:00.838Z,24.79
2019-04-26T15:47:58.475Z,24.77
2019-04-26T15:53:02.514Z,24.73
2019-04-26T15:58:09.273Z,24.48
2019-04-26T16:03:14.446Z,24.22
2019-04-26T16:08:17.857Z,24.26
2019-04-26T16:13:25.190Z,24.16
2019-04-26T16:18:32.285Z,24.05
2019-04-26T16:23:43.264Z,24.01
2019-04-26T16:28:49.447Z,23.79
2019-04-26T16:33:56.130Z,23.72
2019-04-26T16:38:59.025Z,23.58
2019-04-26T16:44:13.140Z,23.64
2019-04-26T16:49:15.798Z,23.48
2019-04-26T16:54:26.113Z,23.37
2019-04-26T16:59:26.800Z,23.32
2019-04-26T17:04:32.263Z,23.38
2019-04-26T17:09:55.569Z,22.72
2019-04-26T17:14:48.677Z,21.96
2019-04-26T17:19:49.706Z,21.41
2019-04-26T17:24:53.473Z,21.46
2019-04-26T17:29:55.550Z,21.21
2019-04-26T17:34:59.535Z,21.49
2019-04-26T17:40:01.612Z,20.80
2019-04-26T17:45:07.246Z,20.78
2019-04-26T17:50:10.955Z,20.95
2019-04-26T17:55:14.951Z,21.17
2019-04-26T18:00:27.121Z,21.15
2019-04-26T18:05:42.002Z,21.23
2019-04-26T18:10:35.507Z,21.12
2019-04-26T18:15:40.001Z,20.73
2019-04-26T18:21:06.462Z,20.51
2019-04-26T18:26:09.933Z,20.35
2019-04-26T18:31:17.703Z,20.23
2019-04-26T18:36:18.768Z,20.25
2019-04-26T18:41:23.085Z,20.16
2019-04-26T18:46:31.885Z,20.14
2019-04-26T18:51:37.215Z,20.14
2019-04-26T18:56:41.749Z,19.02
2019-04-26T19:01:45.062Z,19.02
2019-04-26T19:06:48.777Z,18.51
2019-04-26T19:11:52.836Z,18.37
2019-04-26T19:16:59.224Z,18.49
2019-04-26T19:22:03.479Z,18.77
2019-04-26T19:27:06.465Z,17.90
2019-04-26T19:32:08.934Z,18.11
2019-04-26T19:37:12.539Z,18.23
2019-04-26T19:42:14.695Z,18.27
2019-04-26T19:47:23.573Z,18.28
2019-04-26T19:52:28.323Z,18.33
2019-04-26T19:57:38.895Z,18.43
2019-04-26T20:02:39.260Z,17.98
2019-04-26T20:07:41.735Z,18.20
2019-04-26T20:12:44.038Z,18.17
2019-04-26T20:17:52.834Z,17.66
2019-04-26T20:22:51.787Z,17.66
2019-04-26T20:27:59.817Z,17.34
2019-04-26T20:32:57.861Z,17.25
2019-04-26T20:38:03.489Z,17.43
2019-04-26T20:43:06.889Z,17.52
2019-04-26T20:48:08.219Z,17.05
2019-04-26T20:53:11.993Z,17.20
2019-04-26T20:58:14.374Z,17.19
2019-04-26T21:03:23.665Z,17.00
2019-04-26T21:08:25.788Z,17.14
2019-04-26T21:13:30.763Z,16.91
2019-04-26T21:18:33.600Z,16.94
2019-04-26T21:23:39.653Z,16.85
2019-04-26T21:28:47.614Z,16.86
2019-04-26T21:34:00.288Z,16.83
2019-04-26T21:39:23.247Z,16.80
2019-04-26T21:44:25.110Z,16.74
2019-04-26T21:49:27.162Z,16.71
2019-04-26T21:54:29.210Z,16.58
2019-04-26T21:59:35.233Z,16.17
2019-04-26T22:04:37.717Z,16.24
2019-04-26T22:09:56.146Z,16.23
2019-04-26T22:15:15.142Z,16.14
2019-04-26T22:20:31.144Z,16.26
2019-04-26T22:25:34.823Z,16.25
2019-04-26T22:30:36.708Z,16.22
2019-04-26T22:35:38.835Z,16.13
2019-04-26T22:40:40.649Z,15.94
2019-04-26T22:46:03.198Z,15.82
2019-04-26T22:51:06.682Z,15.88
2019-04-26T22:56:08.531Z,15.78
2019-04-26T23:01:10.546Z,15.78
2019-04-26T23:06:13.605Z,15.70
2019-04-26T23:11:16.619Z,15.60
2019-04-26T23:16:23.390Z,15.53
2019-04-26T23:21:29.851Z,15.39
2019-04-26T23:26:33.412Z,15.40
2019-04-26T23:31:37.479Z,15.22
2019-04-26T23:36:39.324Z,15.18
2019-04-26T23:41:41.577Z,15.03
2019-04-26T23:46:44.446Z,15.11
2019-04-26T23:51:46.280Z,15.00
2019-04-26T23:56:48.171Z,14.98
